sensor_id;sensor_type;location;lat;lon;timestamp;P1;durP1;ratioP1;P2;durP2;ratioP2
34242;SDS011;20504;43.214;27.920;2023-11-21T00:02:03;57.30;;;31.75;;
34242;SDS011;20504;43.214;27.920;2023-11-21T00:04:55;55.05;;;33.67;;
34242;SDS011;20504;43.214;27.920;2023-11-21T00:07:21;47.67;;;28.45;;
34242;SDS011;20504;43.214;27.920;2023-11-21T00:10:01;59.60;;;36.67;;
34242;SDS011;20504;43.214;27.920;2023-11-21T00:12:36;63.83;;;39.20;;
34242;SDS011;20504;43.214;27.920;2023-11-21T00:15:03;68.15;;;40.40;;
34242;SDS011;20504;43.214;27.920;2023-11-21T00:17:53;66.57;;;40.55;;
34242;SDS011;20504;43.214;27.920;2023-11-21T00:20:21;66.32;;;39.38;;
34242;SDS011;20504;43.214;27.920;2023-11-21T00:22:48;61.13;;;37.40;;
34242;SDS011;20504;43.214;27.920;2023-11-21T00:25:13;70.03;;;36.40;;
34242;SDS011;20504;43.214;27.920;2023-11-21T00:30:09;69.45;;;35.38;;
34242;SDS011;20504;43.214;27.920;2023-11-21T00:33:04;64.28;;;34.80;;
34242;SDS011;20504;43.214;27.920;2023-11-21T00:36:01;62.43;;;35.43;;
34242;SDS011;20504;43.214;27.920;2023-11-21T00:40:56;60.75;;;34.75;;
34242;SDS011;20504;43.214;27.920;2023-11-21T00:43:24;59.30;;;34.75;;
34242;SDS011;20504;43.214;27.920;2023-11-21T00:45:54;61.53;;;34.38;;
34242;SDS011;20504;43.214;27.920;2023-11-21T00:48:41;64.05;;;33.97;;
34242;SDS011;20504;43.214;27.920;2023-11-21T00:51:06;63.73;;;34.63;;
34242;SDS011;20504;43.214;27.920;2023-11-21T00:53:35;58.37;;;33.07;;
34242;SDS011;20504;43.214;27.920;2023-11-21T00:56:00;58.08;;;33.88;;
34242;SDS011;20504;43.214;27.920;2023-11-21T01:00:53;51.90;;;30.40;;
34242;SDS011;20504;43.214;27.920;2023-11-21T01:03:18;41.23;;;23.03;;
34242;SDS011;20504;43.214;27.920;2023-11-21T01:05:44;49.07;;;29.80;;
34242;SDS011;20504;43.214;27.920;2023-11-21T01:08:14;49.00;;;26.05;;
34242;SDS011;20504;43.214;27.920;2023-11-21T01:10:40;47.20;;;26.70;;
34242;SDS011;20504;43.214;27.920;2023-11-21T01:13:10;40.55;;;24.98;;
34242;SDS011;20504;43.214;27.920;2023-11-21T01:15:36;47.20;;;25.08;;
34242;SDS011;20504;43.214;27.920;2023-11-21T01:20:30;49.90;;;25.83;;
34242;SDS011;20504;43.214;27.920;2023-11-21T01:22:59;41.63;;;24.50;;
34242;SDS011;20504;43.214;27.920;2023-11-21T01:25:59;42.83;;;23.85;;
34242;SDS011;20504;43.214;27.920;2023-11-21T01:28:32;39.60;;;22.42;;
34242;SDS011;20504;43.214;27.920;2023-11-21T01:31:07;37.65;;;22.30;;
34242;SDS011;20504;43.214;27.920;2023-11-21T01:33:33;35.50;;;20.30;;
34242;SDS011;20504;43.214;27.920;2023-11-21T01:35:59;36.05;;;21.17;;
34242;SDS011;20504;43.214;27.920;2023-11-21T01:38:26;38.60;;;20.83;;
34242;SDS011;20504;43.214;27.920;2023-11-21T01:40:54;32.78;;;20.10;;
34242;SDS011;20504;43.214;27.920;2023-11-21T01:43:36;33.75;;;19.38;;
34242;SDS011;20504;43.214;27.920;2023-11-21T01:46:05;34.67;;;18.85;;
34242;SDS011;20504;43.214;27.920;2023-11-21T01:48:31;31.05;;;18.70;;
34242;SDS011;20504;43.214;27.920;2023-11-21T01:50:58;31.52;;;18.80;;
34242;SDS011;20504;43.214;27.920;2023-11-21T01:53:36;31.40;;;18.40;;
34242;SDS011;20504;43.214;27.920;2023-11-21T01:56:02;33.45;;;20.30;;
34242;SDS011;20504;43.214;27.920;2023-11-21T01:58:35;28.83;;;18.17;;
34242;SDS011;20504;43.214;27.920;2023-11-21T02:01:25;36.63;;;20.42;;
34242;SDS011;20504;43.214;27.920;2023-11-21T02:03:56;31.45;;;19.30;;
34242;SDS011;20504;43.214;27.920;2023-11-21T02:06:37;36.53;;;19.58;;
34242;SDS011;20504;43.214;27.920;2023-11-21T02:09:07;38.08;;;20.23;;
34242;SDS011;20504;43.214;27.920;2023-11-21T02:11:34;43.92;;;21.40;;
34242;SDS011;20504;43.214;27.920;2023-11-21T02:14:04;38.58;;;20.23;;
34242;SDS011;20504;43.214;27.920;2023-11-21T02:16:32;41.30;;;22.33;;
34242;SDS011;20504;43.214;27.920;2023-11-21T02:19:03;34.03;;;20.48;;
34242;SDS011;20504;43.214;27.920;2023-11-21T02:21:36;34.05;;;21.30;;
34242;SDS011;20504;43.214;27.920;2023-11-21T02:24:06;35.67;;;19.42;;
34242;SDS011;20504;43.214;27.920;2023-11-21T02:26:35;34.17;;;20.08;;
34242;SDS011;20504;43.214;27.920;2023-11-21T02:29:01;41.93;;;22.30;;
34242;SDS011;20504;43.214;27.920;2023-11-21T02:31:29;37.42;;;20.13;;
34242;SDS011;20504;43.214;27.920;2023-11-21T02:34:12;34.10;;;18.38;;
34242;SDS011;20504;43.214;27.920;2023-11-21T02:37:05;36.78;;;18.30;;
34242;SDS011;20504;43.214;27.920;2023-11-21T02:39:32;25.17;;;16.45;;
34242;SDS011;20504;43.214;27.920;2023-11-21T02:42:04;28.27;;;16.35;;
34242;SDS011;20504;43.214;27.920;2023-11-21T02:44:29;31.23;;;16.03;;
34242;SDS011;20504;43.214;27.920;2023-11-21T02:46:59;28.42;;;14.95;;
34242;SDS011;20504;43.214;27.920;2023-11-21T02:49:25;24.88;;;15.23;;
34242;SDS011;20504;43.214;27.920;2023-11-21T02:51:54;22.42;;;13.10;;
34242;SDS011;20504;43.214;27.920;2023-11-21T02:54:26;21.70;;;12.75;;
34242;SDS011;20504;43.214;27.920;2023-11-21T02:56:58;22.00;;;12.15;;
34242;SDS011;20504;43.214;27.920;2023-11-21T02:59:26;23.85;;;10.73;;
34242;SDS011;20504;43.214;27.920;2023-11-21T03:01:57;15.10;;;10.07;;
34242;SDS011;20504;43.214;27.920;2023-11-21T03:04:23;16.30;;;9.93;;
34242;SDS011;20504;43.214;27.920;2023-11-21T03:07:07;16.75;;;10.05;;
34242;SDS011;20504;43.214;27.920;2023-11-21T03:09:32;14.63;;;8.85;;
34242;SDS011;20504;43.214;27.920;2023-11-21T03:12:00;17.52;;;9.05;;
34242;SDS011;20504;43.214;27.920;2023-11-21T03:14:28;13.85;;;8.45;;
34242;SDS011;20504;43.214;27.920;2023-11-21T03:17:19;14.60;;;8.02;;
34242;SDS011;20504;43.214;27.920;2023-11-21T03:19:56;12.60;;;7.95;;
34242;SDS011;20504;43.214;27.920;2023-11-21T03:23:00;16.45;;;8.98;;
34242;SDS011;20504;43.214;27.920;2023-11-21T03:33:40;17.02;;;8.38;;
34242;SDS011;20504;43.214;27.920;2023-11-21T03:36:40;14.05;;;8.68;;
34242;SDS011;20504;43.214;27.920;2023-11-21T03:39:49;12.00;;;8.05;;
34242;SDS011;20504;43.214;27.920;2023-11-21T03:42:38;13.85;;;8.73;;
34242;SDS011;20504;43.214;27.920;2023-11-21T03:45:29;15.25;;;8.93;;
34242;SDS011;20504;43.214;27.920;2023-11-21T03:48:20;14.68;;;9.35;;
34242;SDS011;20504;43.214;27.920;2023-11-21T03:50:54;20.88;;;9.63;;
34242;SDS011;20504;43.214;27.920;2023-11-21T03:54:04;19.80;;;9.48;;
34242;SDS011;20504;43.214;27.920;2023-11-21T03:56:34;25.50;;;10.32;;
34242;SDS011;20504;43.214;27.920;2023-11-21T04:01:48;20.83;;;10.02;;
34242;SDS011;20504;43.214;27.920;2023-11-21T04:07:11;23.08;;;11.27;;
34242;SDS011;20504;43.214;27.920;2023-11-21T04:12:27;27.35;;;14.15;;
34242;SDS011;20504;43.214;27.920;2023-11-21T04:14:54;29.42;;;16.77;;
34242;SDS011;20504;43.214;27.920;2023-11-21T04:17:21;36.25;;;20.05;;
34242;SDS011;20504;43.214;27.920;2023-11-21T04:19:46;39.53;;;22.27;;
34242;SDS011;20504;43.214;27.920;2023-11-21T04:22:15;34.22;;;22.17;;
34242;SDS011;20504;43.214;27.920;2023-11-21T04:24:41;40.83;;;23.35;;
34242;SDS011;20504;43.214;27.920;2023-11-21T04:27:09;37.92;;;23.02;;
34242;SDS011;20504;43.214;27.920;2023-11-21T04:29:38;36.70;;;22.33;;
34242;SDS011;20504;43.214;27.920;2023-11-21T04:32:10;36.47;;;21.85;;
34242;SDS011;20504;43.214;27.920;2023-11-21T04:35:18;30.70;;;16.23;;
34242;SDS011;20504;43.214;27.920;2023-11-21T04:38:06;35.78;;;20.95;;
34242;SDS011;20504;43.214;27.920;2023-11-21T04:40:36;41.13;;;21.13;;
34242;SDS011;20504;43.214;27.920;2023-11-21T04:43:05;37.03;;;22.10;;
34242;SDS011;20504;43.214;27.920;2023-11-21T04:45:38;36.58;;;21.95;;
34242;SDS011;20504;43.214;27.920;2023-11-21T04:48:09;39.38;;;21.80;;
34242;SDS011;20504;43.214;27.920;2023-11-21T04:50:36;50.55;;;24.35;;
34242;SDS011;20504;43.214;27.920;2023-11-21T04:53:03;39.65;;;23.75;;
34242;SDS011;20504;43.214;27.920;2023-11-21T04:55:34;39.83;;;24.30;;
34242;SDS011;20504;43.214;27.920;2023-11-21T04:58:10;42.30;;;24.10;;
34242;SDS011;20504;43.214;27.920;2023-11-21T05:00:38;44.85;;;22.08;;
34242;SDS011;20504;43.214;27.920;2023-11-21T05:03:33;37.60;;;22.58;;
34242;SDS011;20504;43.214;27.920;2023-11-21T05:06:09;46.72;;;24.08;;
34242;SDS011;20504;43.214;27.920;2023-11-21T05:08:45;45.20;;;24.20;;
34242;SDS011;20504;43.214;27.920;2023-11-21T05:11:22;48.03;;;22.88;;
34242;SDS011;20504;43.214;27.920;2023-11-21T05:13:56;48.70;;;25.02;;
34242;SDS011;20504;43.214;27.920;2023-11-21T05:16:26;37.50;;;22.08;;
34242;SDS011;20504;43.214;27.920;2023-11-21T05:18:56;40.05;;;22.92;;
34242;SDS011;20504;43.214;27.920;2023-11-21T05:21:25;37.38;;;20.45;;
34242;SDS011;20504;43.214;27.920;2023-11-21T05:23:53;45.63;;;21.20;;
34242;SDS011;20504;43.214;27.920;2023-11-21T05:26:55;32.17;;;18.52;;
34242;SDS011;20504;43.214;27.920;2023-11-21T05:29:23;37.17;;;19.70;;
34242;SDS011;20504;43.214;27.920;2023-11-21T05:32:54;38.85;;;18.70;;
34242;SDS011;20504;43.214;27.920;2023-11-21T05:36:28;40.10;;;18.50;;
34242;SDS011;20504;43.214;27.920;2023-11-21T05:40:02;37.53;;;18.45;;
34242;SDS011;20504;43.214;27.920;2023-11-21T08:56:50;14.60;;;6.82;;
34242;SDS011;20504;43.214;27.920;2023-11-21T08:59:33;16.70;;;6.57;;
34242;SDS011;20504;43.214;27.920;2023-11-21T09:07:45;19.35;;;9.45;;
34242;SDS011;20504;43.214;27.920;2023-11-21T09:31:10;15.10;;;6.93;;
34242;SDS011;20504;43.214;27.920;2023-11-21T09:51:51;16.42;;;5.38;;
34242;SDS011;20504;43.214;27.920;2023-11-21T09:55:15;20.00;;;5.57;;
34242;SDS011;20504;43.214;27.920;2023-11-21T09:57:51;17.65;;;5.20;;
34242;SDS011;20504;43.214;27.920;2023-11-21T10:01:05;15.63;;;5.22;;
34242;SDS011;20504;43.214;27.920;2023-11-21T10:03:35;16.05;;;5.32;;
34242;SDS011;20504;43.214;27.920;2023-11-21T10:06:00;16.85;;;5.15;;
34242;SDS011;20504;43.214;27.920;2023-11-21T10:08:26;17.42;;;5.40;;
34242;SDS011;20504;43.214;27.920;2023-11-21T10:10:53;20.77;;;6.78;;
34242;SDS011;20504;43.214;27.920;2023-11-21T10:13:24;17.42;;;5.57;;
34242;SDS011;20504;43.214;27.920;2023-11-21T10:15:58;19.67;;;5.93;;
34242;SDS011;20504;43.214;27.920;2023-11-21T10:18:30;15.88;;;5.47;;
34242;SDS011;20504;43.214;27.920;2023-11-21T10:21:00;23.20;;;5.78;;
34242;SDS011;20504;43.214;27.920;2023-11-21T10:23:42;18.33;;;5.63;;
34242;SDS011;20504;43.214;27.920;2023-11-21T10:26:11;15.07;;;5.65;;
34242;SDS011;20504;43.214;27.920;2023-11-21T10:28:59;12.48;;;4.82;;
34242;SDS011;20504;43.214;27.920;2023-11-21T10:31:28;19.85;;;4.72;;
34242;SDS011;20504;43.214;27.920;2023-11-21T10:34:14;12.60;;;4.90;;
34242;SDS011;20504;43.214;27.920;2023-11-21T10:36:40;11.85;;;4.55;;
34242;SDS011;20504;43.214;27.920;2023-11-21T10:45:12;14.85;;;4.90;;
34242;SDS011;20504;43.214;27.920;2023-11-21T10:47:42;15.05;;;5.50;;
34242;SDS011;20504;43.214;27.920;2023-11-21T10:50:09;16.00;;;4.70;;
34242;SDS011;20504;43.214;27.920;2023-11-21T10:52:40;18.50;;;5.15;;
34242;SDS011;20504;43.214;27.920;2023-11-21T10:55:23;11.55;;;4.72;;
34242;SDS011;20504;43.214;27.920;2023-11-21T11:00:25;11.38;;;4.50;;
34242;SDS011;20504;43.214;27.920;2023-11-21T11:03:23;18.38;;;5.70;;
34242;SDS011;20504;43.214;27.920;2023-11-21T11:05:51;13.68;;;5.28;;
34242;SDS011;20504;43.214;27.920;2023-11-21T11:08:22;17.50;;;5.03;;
34242;SDS011;20504;43.214;27.920;2023-11-21T11:10:52;13.25;;;5.68;;
34242;SDS011;20504;43.214;27.920;2023-11-21T11:13:19;21.67;;;5.47;;
34242;SDS011;20504;43.214;27.920;2023-11-21T11:15:57;15.50;;;5.38;;
34242;SDS011;20504;43.214;27.920;2023-11-21T11:24:08;15.48;;;6.05;;
34242;SDS011;20504;43.214;27.920;2023-11-21T11:26:51;16.05;;;5.13;;
34242;SDS011;20504;43.214;27.920;2023-11-21T11:35:04;12.82;;;5.30;;
34242;SDS011;20504;43.214;27.920;2023-11-21T11:40:11;11.90;;;4.78;;
34242;SDS011;20504;43.214;27.920;2023-11-21T11:46:03;12.32;;;5.25;;
34242;SDS011;20504;43.214;27.920;2023-11-21T11:55:18;18.73;;;7.32;;
34242;SDS011;20504;43.214;27.920;2023-11-21T11:57:47;12.15;;;6.38;;
34242;SDS011;20504;43.214;27.920;2023-11-21T12:00:17;12.02;;;6.60;;
34242;SDS011;20504;43.214;27.920;2023-11-21T12:03:07;16.65;;;7.40;;
34242;SDS011;20504;43.214;27.920;2023-11-21T12:05:58;13.02;;;7.07;;
34242;SDS011;20504;43.214;27.920;2023-11-21T12:08:40;16.33;;;7.60;;
34242;SDS011;20504;43.214;27.920;2023-11-21T12:16:59;15.07;;;8.68;;
34242;SDS011;20504;43.214;27.920;2023-11-21T12:19:46;17.23;;;8.10;;
34242;SDS011;20504;43.214;27.920;2023-11-21T12:22:17;14.97;;;7.53;;
34242;SDS011;20504;43.214;27.920;2023-11-21T14:35:27;14.18;;;7.13;;
34242;SDS011;20504;43.214;27.920;2023-11-21T14:37:58;17.00;;;6.25;;
34242;SDS011;20504;43.214;27.920;2023-11-21T14:40:32;17.20;;;6.75;;
34242;SDS011;20504;43.214;27.920;2023-11-21T14:43:01;12.38;;;6.53;;
34242;SDS011;20504;43.214;27.920;2023-11-21T14:45:34;13.45;;;6.78;;
34242;SDS011;20504;43.214;27.920;2023-11-21T14:48:05;16.10;;;6.65;;
34242;SDS011;20504;43.214;27.920;2023-11-21T14:50:42;14.57;;;7.10;;
34242;SDS011;20504;43.214;27.920;2023-11-21T14:53:44;11.35;;;7.18;;
34242;SDS011;20504;43.214;27.920;2023-11-21T14:56:23;10.60;;;5.55;;
34242;SDS011;20504;43.214;27.920;2023-11-21T14:58:56;10.38;;;5.78;;
34242;SDS011;20504;43.214;27.920;2023-11-21T15:01:37;12.38;;;5.60;;
34242;SDS011;20504;43.214;27.920;2023-11-21T15:04:22;9.65;;;4.95;;
34242;SDS011;20504;43.214;27.920;2023-11-21T15:07:04;7.93;;;4.57;;
34242;SDS011;20504;43.214;27.920;2023-11-21T15:09:32;10.05;;;4.72;;
34242;SDS011;20504;43.214;27.920;2023-11-21T15:12:28;11.15;;;6.15;;
34242;SDS011;20504;43.214;27.920;2023-11-21T15:15:14;12.93;;;5.90;;
34242;SDS011;20504;43.214;27.920;2023-11-21T15:17:39;19.30;;;8.23;;
34242;SDS011;20504;43.214;27.920;2023-11-21T15:20:07;15.82;;;8.45;;
34242;SDS011;20504;43.214;27.920;2023-11-21T15:22:33;12.93;;;7.30;;
34242;SDS011;20504;43.214;27.920;2023-11-21T15:25:00;16.93;;;7.80;;
34242;SDS011;20504;43.214;27.920;2023-11-21T15:27:32;12.48;;;8.00;;
34242;SDS011;20504;43.214;27.920;2023-11-21T15:30:18;15.88;;;8.15;;
34242;SDS011;20504;43.214;27.920;2023-11-21T15:32:48;14.55;;;7.80;;
34242;SDS011;20504;43.214;27.920;2023-11-21T15:35:16;16.50;;;7.90;;
34242;SDS011;20504;43.214;27.920;2023-11-21T15:37:42;15.57;;;9.20;;
34242;SDS011;20504;43.214;27.920;2023-11-21T15:40:21;14.95;;;8.73;;
34242;SDS011;20504;43.214;27.920;2023-11-21T15:42:46;17.00;;;9.43;;
34242;SDS011;20504;43.214;27.920;2023-11-21T15:45:18;14.48;;;9.32;;
34242;SDS011;20504;43.214;27.920;2023-11-21T15:47:47;17.15;;;9.98;;
34242;SDS011;20504;43.214;27.920;2023-11-21T15:50:17;14.63;;;9.02;;
34242;SDS011;20504;43.214;27.920;2023-11-21T15:52:48;19.90;;;12.00;;
34242;SDS011;20504;43.214;27.920;2023-11-21T15:55:16;17.73;;;10.38;;
34242;SDS011;20504;43.214;27.920;2023-11-21T15:58:00;15.45;;;9.15;;
34242;SDS011;20504;43.214;27.920;2023-11-21T16:00:31;12.98;;;9.65;;
34242;SDS011;20504;43.214;27.920;2023-11-21T16:03:03;15.55;;;9.63;;
34242;SDS011;20504;43.214;27.920;2023-11-21T16:05:37;23.73;;;11.68;;
34242;SDS011;20504;43.214;27.920;2023-11-21T16:08:04;24.13;;;13.52;;
34242;SDS011;20504;43.214;27.920;2023-11-21T16:10:36;25.92;;;13.70;;
34242;SDS011;20504;43.214;27.920;2023-11-21T16:13:01;32.80;;;14.60;;
34242;SDS011;20504;43.214;27.920;2023-11-21T17:24:53;15.25;;;5.38;;
34242;SDS011;20504;43.214;27.920;2023-11-21T21:34:33;28.98;;;15.10;;
34242;SDS011;20504;43.214;27.920;2023-11-21T21:37:39;24.23;;;14.10;;
34242;SDS011;20504;43.214;27.920;2023-11-21T21:46:01;24.50;;;15.02;;
34242;SDS011;20504;43.214;27.920;2023-11-21T21:49:06;23.42;;;14.50;;
34242;SDS011;20504;43.214;27.920;2023-11-21T21:51:47;23.08;;;15.43;;
34242;SDS011;20504;43.214;27.920;2023-11-21T21:57:25;17.10;;;13.05;;
34242;SDS011;20504;43.214;27.920;2023-11-21T21:59:51;22.53;;;13.50;;
34242;SDS011;20504;43.214;27.920;2023-11-21T22:02:27;17.13;;;12.95;;
34242;SDS011;20504;43.214;27.920;2023-11-21T22:05:40;20.05;;;13.15;;
34242;SDS011;20504;43.214;27.920;2023-11-21T22:10:57;23.45;;;12.73;;
34242;SDS011;20504;43.214;27.920;2023-11-21T22:13:30;19.60;;;13.13;;
34242;SDS011;20504;43.214;27.920;2023-11-21T22:16:05;19.73;;;12.32;;
34242;SDS011;20504;43.214;27.920;2023-11-21T22:18:58;21.15;;;11.90;;
34242;SDS011;20504;43.214;27.920;2023-11-21T22:41:07;14.85;;;10.32;;
34242;SDS011;20504;43.214;27.920;2023-11-21T22:43:34;20.70;;;9.18;;
34242;SDS011;20504;43.214;27.920;2023-11-21T22:46:03;16.47;;;11.17;;
34242;SDS011;20504;43.214;27.920;2023-11-21T22:48:30;17.42;;;10.68;;
34242;SDS011;20504;43.214;27.920;2023-11-21T22:50:56;16.10;;;10.27;;
34242;SDS011;20504;43.214;27.920;2023-11-21T22:53:21;21.07;;;11.60;;
34242;SDS011;20504;43.214;27.920;2023-11-21T22:55:50;17.33;;;10.63;;
34242;SDS011;20504;43.214;27.920;2023-11-21T23:01:21;19.33;;;10.15;;
34242;SDS011;20504;43.214;27.920;2023-11-21T23:03:46;13.63;;;9.40;;
34242;SDS011;20504;43.214;27.920;2023-11-21T23:06:17;13.57;;;9.85;;
34242;SDS011;20504;43.214;27.920;2023-11-21T23:08:44;15.77;;;8.95;;
34242;SDS011;20504;43.214;27.920;2023-11-21T23:11:10;15.32;;;9.40;;
34242;SDS011;20504;43.214;27.920;2023-11-21T23:17:04;12.52;;;9.05;;
34242;SDS011;20504;43.214;27.920;2023-11-21T23:20:07;15.45;;;9.45;;
34242;SDS011;20504;43.214;27.920;2023-11-21T23:38:17;12.82;;;8.15;;
